Time;durP1;ratioP1;P1;durP2;ratioP2;P2;SDS_P1;SDS_P2;PMS_P1;PMS_P2;Temp;Humidity;BMP_temperature;BMP_pressure;BME280_temperature;BME280_humidity;BME280_pressure;Samples;Min_cycle;Max_cycle;Signal;HPM_P1;HPM_P2
2021/08/20 00:00:57;;;;;;;4.05;1.70;;;;;;;;;;5111362;28;20484;-71
2021/08/20 00:11:55;;;;;;;4.97;1.52;;;;;;;;;;5111151;27;20943;-71
2021/08/20 00:14:21;;;;;;;3.97;1.25;;;;;;;;;;5111640;28;20028;-69
2021/08/20 00:16:48;;;;;;;3.35;1.38;;;;;;;;;;5111297;28;20094;-70
2021/08/20 00:19:14;;;;;;;4.22;1.70;;;;;;;;;;5110862;28;20019;-70
2021/08/20 00:23:59;;;;;;;2.80;1.13;;;;;;;;;;5071312;28;20489;-69
2021/08/20 00:26:25;;;;;;;4.03;1.08;;;;;;;;;;5070363;28;20100;-69
2021/08/20 00:28:52;;;;;;;4.22;1.77;;;;;;;;;;5070781;28;20366;-69
2021/08/20 00:31:18;;;;;;;2.83;1.40;;;;;;;;;;5070726;28;20079;-70
2021/08/20 00:33:44;;;;;;;3.25;1.40;;;;;;;;;;5070378;28;20029;-69
2021/08/20 00:36:10;;;;;;;3.25;1.55;;;;;;;;;;5070755;28;20035;-70
2021/08/20 00:38:49;;;;;;;2.83;1.40;;;;;;;;;;5111211;27;20385;-70
2021/08/20 00:41:16;;;;;;;5.40;1.63;;;;;;;;;;5110034;28;20372;-70
2021/08/20 00:47:08;;;;;;;4.95;1.42;;;;;;;;;;5111218;27;20920;-70
2021/08/20 00:51:04;;;;;;;2.83;1.33;;;;;;;;;;5111940;27;20454;-68
2021/08/20 00:53:37;;;;;;;2.55;1.40;;;;;;;;;;5109695;28;20024;-71
2021/08/20 00:56:03;;;;;;;;;;;;;;;;;;5111704;28;20026;-69
2021/08/20 00:58:31;;;;;;;7.38;1.55;;;;;;;;;;5111271;28;19998;-69
2021/08/20 01:00:57;;;;;;;3.78;1.85;;;;;;;;;;5110804;28;20020;-71
2021/08/20 01:03:25;;;;;;;2.97;1.25;;;;;;;;;;5111144;28;20480;-69
2021/08/20 01:05:52;;;;;;;3.40;1.35;;;;;;;;;;5111124;28;20426;-70
2021/08/20 01:08:18;;;;;;;3.17;1.17;;;;;;;;;;5110596;28;20024;-70
2021/08/20 01:10:44;;;;;;;4.10;1.60;;;;;;;;;;5111549;28;20103;-70
2021/08/20 01:13:10;;;;;;;2.78;1.30;;;;;;;;;;5109615;28;20031;-69
2021/08/20 01:15:37;;;;;;;3.13;1.35;;;;;;;;;;5110817;28;20028;-70
2021/08/20 01:19:21;;;;;;;3.85;1.65;;;;;;;;;;5111426;27;20406;-68
2021/08/20 01:22:15;;;;;;;5.30;1.80;;;;;;;;;;5111068;27;20449;-68
2021/08/20 01:24:44;;;;;;;3.08;1.38;;;;;;;;;;5111441;28;20031;-69
2021/08/20 01:27:10;;;;;;;4.45;1.40;;;;;;;;;;5111272;28;20530;-70
2021/08/20 01:29:36;;;;;;;4.28;1.58;;;;;;;;;;5110895;28;20477;-69
2021/08/20 01:34:14;;;;;;;3.78;1.40;;;;;;;;;;5070891;28;20399;-71
2021/08/20 01:36:40;;;;;;;3.58;1.67;;;;;;;;;;5070449;28;20489;-71
2021/08/20 01:39:07;;;;;;;4.50;1.20;;;;;;;;;;5070755;28;20032;-69
2021/08/20 01:41:34;;;;;;;5.13;1.65;;;;;;;;;;5070753;28;20024;-69
2021/08/20 01:45:13;;;;;;;4.00;1.40;;;;;;;;;;5111798;27;20509;-69
2021/08/20 01:47:40;;;;;;;3.47;1.48;;;;;;;;;;5111751;28;20484;-69
2021/08/20 01:51:13;;;;;;;6.43;1.98;;;;;;;;;;5111526;27;20409;-68
2021/08/20 01:53:39;;;;;;;2.78;1.20;;;;;;;;;;5111323;28;20050;-68
2021/08/20 01:56:33;;;;;;;2.75;1.15;;;;;;;;;;5111573;27;20408;-70
2021/08/20 01:58:59;;;;;;;3.22;1.15;;;;;;;;;;5111676;28;20039;-70
2021/08/20 02:01:27;;;;;;;4.93;1.13;;;;;;;;;;5111318;28;20091;-70
2021/08/20 02:03:53;;;;;;;3.70;1.58;;;;;;;;;;5110920;28;20057;-70
2021/08/20 02:06:19;;;;;;;3.55;0.80;;;;;;;;;;5111228;28;20074;-70
2021/08/20 02:08:46;;;;;;;3.50;1.25;;;;;;;;;;5109867;28;20019;-69
2021/08/20 02:11:12;;;;;;;3.90;1.30;;;;;;;;;;5111016;28;20444;-69
2021/08/20 02:15:45;;;;;;;3.83;1.45;;;;;;;;;;5111847;27;20397;-68
2021/08/20 02:18:11;;;;;;;3.90;1.10;;;;;;;;;;5110987;28;20028;-69
2021/08/20 02:21:08;;;;;;;2.30;1.33;;;;;;;;;;5111888;27;20757;-68
2021/08/20 02:23:36;;;;;;;2.15;1.30;;;;;;;;;;5127228;28;20115;-69
2021/08/20 02:26:48;;;;;;;4.38;1.55;;;;;;;;;;5111944;27;20513;-69
2021/08/20 02:29:14;;;;;;;4.68;1.10;;;;;;;;;;5110081;28;20035;-69
2021/08/20 02:31:41;;;;;;;3.17;1.23;;;;;;;;;;5111041;28;20099;-69
2021/08/20 02:34:07;;;;;;;6.25;1.50;;;;;;;;;;5111305;28;20024;-69
2021/08/20 02:36:33;;;;;;;4.93;1.48;;;;;;;;;;5111183;28;20472;-69
2021/08/20 02:39:37;;;;;;;2.83;1.30;;;;;;;;;;5111251;27;20396;-71
2021/08/20 02:42:03;;;;;;;2.08;1.00;;;;;;;;;;5111789;28;20016;-68
2021/08/20 02:44:29;;;;;;;3.97;1.77;;;;;;;;;;5111267;28;20503;-69
2021/08/20 02:48:05;;;;;;;2.42;1.08;;;;;;;;;;5111953;27;20389;-71
2021/08/20 02:50:32;;;;;;;3.10;1.55;;;;;;;;;;5111678;28;20023;-68
2021/08/20 02:52:58;;;;;;;3.97;1.27;;;;;;;;;;5111127;28;20024;-71
2021/08/20 02:55:24;;;;;;;2.50;1.63;;;;;;;;;;5110008;28;20016;-69
2021/08/20 02:58:19;;;;;;;3.03;1.38;;;;;;;;;;5111547;27;20441;-69
2021/08/20 03:00:45;;;;;;;3.72;1.48;;;;;;;;;;5110904;28;20028;-70
2021/08/20 03:03:11;;;;;;;4.20;1.30;;;;;;;;;;5111295;28;20057;-71
2021/08/20 03:05:38;;;;;;;3.67;1.60;;;;;;;;;;5111294;28;20438;-71
2021/08/20 03:08:04;;;;;;;2.08;0.93;;;;;;;;;;5110966;28;20024;-70
2021/08/20 03:12:42;;;;;;;5.47;1.52;;;;;;;;;;5111724;27;20772;-71
2021/08/20 03:15:08;;;;;;;4.53;1.40;;;;;;;;;;5110989;28;20032;-70
2021/08/20 03:18:42;;;;;;;8.60;1.65;;;;;;;;;;5111709;27;20916;-69
2021/08/20 03:21:08;;;;;;;7.75;1.63;;;;;;;;;;5110946;28;20476;-69
2021/08/20 03:23:34;;;;;;;5.03;2.03;;;;;;;;;;5111280;28;20035;-69
2021/08/20 03:29:04;;;;;;;5.63;1.58;;;;;;;;;;5173155;27;20114;-70
2021/08/20 03:31:31;;;;;;;2.03;1.10;;;;;;;;;;5152542;27;20467;-70
2021/08/20 03:34:54;;;;;;;4.05;1.50;;;;;;;;;;5111285;27;20393;-70
2021/08/20 03:40:42;;;;;;;2.88;1.35;;;;;;;;;;5070777;28;20391;-70
2021/08/20 03:43:08;;;;;;;2.67;1.13;;;;;;;;;;5069125;28;20436;-69
2021/08/20 03:45:35;;;;;;;3.65;1.15;;;;;;;;;;5070869;28;20029;-69
2021/08/20 03:48:01;;;;;;;2.47;1.10;;;;;;;;;;5071152;28;20020;-70
2021/08/20 03:50:27;;;;;;;2.17;1.15;;;;;;;;;;5070275;28;20468;-70
2021/08/20 03:53:53;;;;;;;1.88;1.20;;;;;;;;;;5111792;27;20400;-71
2021/08/20 03:56:20;;;;;;;2.95;1.30;;;;;;;;;;5109759;28;20548;-69
2021/08/20 03:58:46;;;;;;;2.22;1.33;;;;;;;;;;5111283;28;20046;-71
2021/08/20 04:03:07;;;;;;;4.47;1.67;;;;;;;;;;5111479;27;20408;-69
2021/08/20 04:05:33;;;;;;;3.50;1.60;;;;;;;;;;5111697;28;20024;-71
2021/08/20 04:07:59;;;;;;;2.15;1.13;;;;;;;;;;5111236;28;20034;-71
2021/08/20 04:10:25;;;;;;;4.47;1.38;;;;;;;;;;5110937;28;20024;-70
2021/08/20 04:12:52;;;;;;;3.97;1.70;;;;;;;;;;5111208;28;20027;-71
2021/08/20 04:15:18;;;;;;;5.43;1.58;;;;;;;;;;5111392;28;20137;-70
2021/08/20 04:19:28;;;;;;;3.63;1.75;;;;;;;;;;5111537;27;20742;-71
2021/08/20 04:21:54;;;;;;;6.75;1.83;;;;;;;;;;5111315;28;20031;-69
2021/08/20 04:24:20;;;;;;;4.13;1.70;;;;;;;;;;5110909;28;20383;-69
2021/08/20 04:26:46;;;;;;;6.07;1.50;;;;;;;;;;5109942;28;20028;-69
2021/08/20 04:29:13;;;;;;;3.88;1.25;;;;;;;;;;5111212;28;20472;-69
2021/08/20 04:31:39;;;;;;;3.28;1.38;;;;;;;;;;5110750;28;20059;-69
2021/08/20 04:34:06;;;;;;;4.78;1.85;;;;;;;;;;5111317;28;20024;-70
2021/08/20 04:36:32;;;;;;;3.47;1.65;;;;;;;;;;5111060;28;20020;-69
2021/08/20 04:39:27;;;;;;;3.08;1.25;;;;;;;;;;5111154;27;20408;-70
2021/08/20 04:43:06;;;;;;;7.43;1.80;;;;;;;;;;5111600;27;20428;-70
2021/08/20 04:45:33;;;;;;;5.25;2.95;;;;;;;;;;5111051;28;20477;-68
2021/08/20 04:47:59;;;;;;;7.15;3.50;;;;;;;;;;5111714;28;20372;-69
2021/08/20 04:50:28;;;;;;;5.70;1.63;;;;;;;;;;5111400;28;20024;-68
2021/08/20 04:52:55;;;;;;;4.63;1.63;;;;;;;;;;5110870;28;20061;-69
2021/08/20 04:56:40;;;;;;;3.95;1.67;;;;;;;;;;5112125;27;20393;-69
2021/08/20 04:59:06;;;;;;;3.05;1.35;;;;;;;;;;5110874;28;20048;-69
2021/08/20 05:01:32;;;;;;;5.40;1.77;;;;;;;;;;5111203;28;20024;-69
2021/08/20 05:03:59;;;;;;;5.78;1.42;;;;;;;;;;5111261;28;20436;-69
2021/08/20 05:06:25;;;;;;;3.40;1.67;;;;;;;;;;5110840;28;20102;-69
2021/08/20 05:08:51;;;;;;;3.08;1.33;;;;;;;;;;5111159;28;20024;-69
2021/08/20 05:11:17;;;;;;;3.85;1.65;;;;;;;;;;5111150;28;20484;-69
2021/08/20 05:16:11;;;;;;;2.80;1.20;;;;;;;;;;5122559;27;20656;-70
2021/08/20 05:18:37;;;;;;;3.88;1.50;;;;;;;;;;5072619;28;20107;-68
2021/08/20 05:21:03;;;;;;;1.90;1.25;;;;;;;;;;5090356;28;20103;-68
2021/08/20 05:23:30;;;;;;;3.97;1.48;;;;;;;;;;5090725;28;20388;-68
2021/08/20 05:25:56;;;;;;;5.75;1.73;;;;;;;;;;5090686;28;20089;-69
2021/08/20 05:30:39;;;;;;;4.88;1.63;;;;;;;;;;5111478;27;20437;-68
2021/08/20 05:33:05;;;;;;;3.60;1.65;;;;;;;;;;5111231;28;20480;-71
2021/08/20 05:35:34;;;;;;;2.92;1.25;;;;;;;;;;5110998;28;20031;-71
2021/08/20 05:38:01;;;;;;;3.25;1.20;;;;;;;;;;5111209;28;20051;-70
2021/08/20 05:40:28;;;;;;;3.22;1.63;;;;;;;;;;5111181;28;20099;-69
2021/08/20 05:42:54;;;;;;;4.32;1.60;;;;;;;;;;5109423;28;20063;-70
2021/08/20 05:45:20;;;;;;;3.67;1.40;;;;;;;;;;5109508;28;20500;-70
2021/08/20 05:47:46;;;;;;;3.88;1.45;;;;;;;;;;5109569;28;20031;-70
2021/08/20 05:50:12;;;;;;;3.80;1.50;;;;;;;;;;5110423;28;20035;-70
2021/08/20 05:52:39;;;;;;;4.97;1.60;;;;;;;;;;5109603;28;20487;-70
2021/08/20 05:55:10;;;;;;;4.57;1.55;;;;;;;;;;5110380;28;20106;-70
2021/08/20 05:58:57;;;;;;;5.28;1.60;;;;;;;;;;5172888;27;20110;-70
2021/08/20 06:03:00;;;;;;;4.40;1.77;;;;;;;;;;5089305;27;20918;-68
2021/08/20 06:07:12;;;;;;;3.58;1.60;;;;;;;;;;5070463;28;20403;-69
2021/08/20 06:09:55;;;;;;;4.72;1.48;;;;;;;;;;5097785;27;1632687;-69
2021/08/20 06:12:21;;;;;;;4.10;1.35;;;;;;;;;;5130350;28;20028;-69
2021/08/20 06:14:47;;;;;;;3.80;1.67;;;;;;;;;;5131820;28;20102;-70
2021/08/20 06:17:13;;;;;;;4.95;2.28;;;;;;;;;;5129399;28;20098;-71
2021/08/20 06:19:39;;;;;;;4.40;1.83;;;;;;;;;;5130998;28;20092;-70
2021/08/20 06:22:06;;;;;;;4.20;1.60;;;;;;;;;;5130240;28;20027;-70
2021/08/20 06:24:32;;;;;;;5.65;2.13;;;;;;;;;;5131080;28;20425;-70
2021/08/20 06:26:58;;;;;;;4.43;1.52;;;;;;;;;;5131330;28;20050;-70
2021/08/20 06:29:24;;;;;;;6.82;2.13;;;;;;;;;;5129796;28;20032;-70
2021/08/20 06:32:14;;;;;;;3.75;1.60;;;;;;;;;;5111032;27;20410;-71
2021/08/20 06:35:25;;;;;;;3.53;1.60;;;;;;;;;;5111131;27;20462;-72
2021/08/20 06:38:46;;;;;;;6.30;1.90;;;;;;;;;;5111056;27;20388;-70
2021/08/20 06:43:09;;;;;;;4.30;1.67;;;;;;;;;;5131867;27;20315;-69
2021/08/20 06:45:35;;;;;;;4.10;1.80;;;;;;;;;;5110418;28;20028;-69
2021/08/20 06:48:01;;;;;;;5.38;1.77;;;;;;;;;;5111226;28;20028;-69
2021/08/20 06:50:27;;;;;;;4.43;1.70;;;;;;;;;;5111194;28;20016;-69
2021/08/20 06:52:54;;;;;;;4.25;1.70;;;;;;;;;;5110616;28;20020;-70
2021/08/20 06:55:47;;;;;;;5.80;1.77;;;;;;;;;;5110060;27;20393;-69
2021/08/20 06:58:13;;;;;;;4.55;1.70;;;;;;;;;;5088351;28;20476;-69
2021/08/20 07:00:39;;;;;;;2.58;1.27;;;;;;;;;;5089159;28;20024;-70
2021/08/20 07:03:05;;;;;;;4.32;1.75;;;;;;;;;;5089926;28;20052;-68
2021/08/20 07:05:33;;;;;;;4.18;1.80;;;;;;;;;;5088549;28;20027;-68
2021/08/20 07:07:59;;;;;;;4.38;1.67;;;;;;;;;;5088464;28;20115;-69
2021/08/20 07:10:25;;;;;;;5.63;1.65;;;;;;;;;;5089686;28;20055;-68
2021/08/20 07:12:51;;;;;;;3.45;1.60;;;;;;;;;;5088920;28;20028;-67
2021/08/20 07:15:17;;;;;;;4.28;1.52;;;;;;;;;;5088381;28;20074;-68
2021/08/20 07:17:43;;;;;;;2.60;1.33;;;;;;;;;;5086573;28;20020;-69
2021/08/20 07:20:11;;;;;;;4.90;1.70;;;;;;;;;;5086997;28;20073;-69
2021/08/20 07:22:37;;;;;;;3.45;1.25;;;;;;;;;;5087227;28;20028;-69
2021/08/20 07:25:03;;;;;;;5.53;1.90;;;;;;;;;;5088305;28;20029;-69
2021/08/20 07:27:29;;;;;;;6.30;1.60;;;;;;;;;;5087662;28;20028;-69
2021/08/20 07:29:55;;;;;;;3.90;1.45;;;;;;;;;;5088100;28;20036;-69
2021/08/20 07:32:21;;;;;;;5.20;2.00;;;;;;;;;;5089550;28;20020;-69
2021/08/20 07:35:52;;;;;;;2.33;1.45;;;;;;;;;;5111074;27;20509;-69
2021/08/20 07:38:18;;;;;;;5.47;1.60;;;;;;;;;;5108982;28;20360;-69
2021/08/20 07:40:44;;;;;;;3.92;1.55;;;;;;;;;;5110044;28;20031;-69
2021/08/20 07:43:11;;;;;;;4.65;2.45;;;;;;;;;;5108971;28;20028;-69
2021/08/20 07:45:37;;;;;;;6.03;2.05;;;;;;;;;;5107923;28;20019;-69
2021/08/20 07:48:04;;;;;;;3.83;1.80;;;;;;;;;;5099269;28;20062;-69
2021/08/20 07:50:30;;;;;;;5.10;2.10;;;;;;;;;;5090126;28;20025;-70
2021/08/20 07:52:56;;;;;;;4.88;1.98;;;;;;;;;;5087010;28;20029;-69
2021/08/20 07:55:23;;;;;;;4.03;1.67;;;;;;;;;;5088062;28;20043;-70
2021/08/20 07:57:53;;;;;;;4.45;1.75;;;;;;;;;;5087452;28;20020;-69
2021/08/20 08:00:21;;;;;;;6.47;2.70;;;;;;;;;;5086850;28;20035;-69
2021/08/20 08:02:47;;;;;;;5.90;2.90;;;;;;;;;;5086111;28;20074;-70
2021/08/20 08:06:35;;;;;;;9.95;2.75;;;;;;;;;;5143073;27;20392;-69
2021/08/20 08:09:02;;;;;;;4.68;2.70;;;;;;;;;;5107314;28;20035;-69
2021/08/20 08:11:31;;;;;;;4.43;1.98;;;;;;;;;;5107135;28;20016;-69
2021/08/20 08:16:14;;;;;;;8.32;2.45;;;;;;;;;;5087905;27;20996;-71
2021/08/20 08:18:40;;;;;;;7.80;2.47;;;;;;;;;;5089245;28;20029;-68
2021/08/20 08:21:07;;;;;;;4.38;2.00;;;;;;;;;;5087910;28;20052;-68
2021/08/20 08:23:33;;;;;;;4.82;2.20;;;;;;;;;;5089353;28;20020;-69
2021/08/20 08:25:59;;;;;;;4.10;2.17;;;;;;;;;;5090675;28;20035;-69
2021/08/20 08:28:26;;;;;;;6.15;2.33;;;;;;;;;;5089414;28;20024;-69
2021/08/20 08:30:52;;;;;;;5.63;2.60;;;;;;;;;;5090167;28;20497;-69
2021/08/20 08:33:18;;;;;;;5.85;2.47;;;;;;;;;;5090653;28;20020;-69
2021/08/20 08:35:45;;;;;;;4.50;2.08;;;;;;;;;;5090516;28;20036;-70
2021/08/20 08:38:12;;;;;;;8.15;2.92;;;;;;;;;;5088791;28;20059;-70
2021/08/20 08:40:46;;;;;;;7.60;2.92;;;;;;;;;;5090179;28;20028;-69
2021/08/20 08:43:12;;;;;;;12.50;3.25;;;;;;;;;;5088072;28;20019;-70
2021/08/20 08:45:39;;;;;;;5.88;2.45;;;;;;;;;;5090047;28;20164;-69
2021/08/20 08:48:07;;;;;;;4.50;2.30;;;;;;;;;;5074963;28;20021;-69
2021/08/20 08:50:33;;;;;;;5.35;2.75;;;;;;;;;;5068128;28;20501;-69
2021/08/20 08:53:00;;;;;;;5.85;2.45;;;;;;;;;;5068156;28;20451;-68
2021/08/20 08:55:26;;;;;;;5.30;2.95;;;;;;;;;;5068261;28;20071;-68
2021/08/20 08:57:53;;;;;;;5.85;2.55;;;;;;;;;;5068794;28;20033;-68
2021/08/20 09:00:32;;;;;;;4.07;2.33;;;;;;;;;;5068225;28;20049;-68
2021/08/20 09:02:58;;;;;;;5.05;2.58;;;;;;;;;;5069514;28;20021;-67
2021/08/20 09:05:24;;;;;;;5.03;2.50;;;;;;;;;;5067855;28;20557;-69
2021/08/20 09:07:52;;;;;;;6.75;2.35;;;;;;;;;;5066935;28;20024;-69
2021/08/20 09:10:25;;;;;;;5.20;2.85;;;;;;;;;;5066313;28;20025;-69
2021/08/20 09:12:57;;;;;;;6.70;2.70;;;;;;;;;;5067141;28;20020;-70
2021/08/20 09:15:24;;;;;;;6.53;2.72;;;;;;;;;;5067546;28;20052;-69
2021/08/20 09:17:52;;;;;;;7.10;2.63;;;;;;;;;;5068136;28;20017;-70
2021/08/20 09:20:20;;;;;;;6.38;2.80;;;;;;;;;;5068179;28;20477;-70
2021/08/20 09:22:47;;;;;;;5.90;2.75;;;;;;;;;;5067762;28;20115;-70
2021/08/20 09:25:34;;;;;;;10.73;3.03;;;;;;;;;;5066493;28;20032;-70
2021/08/20 09:28:08;;;;;;;4.78;2.47;;;;;;;;;;5055669;28;20028;-71
2021/08/20 09:30:35;;;;;;;6.45;3.30;;;;;;;;;;5055897;28;20430;-70
2021/08/20 09:33:01;;;;;;;5.97;3.08;;;;;;;;;;5054746;28;20032;-70
2021/08/20 09:35:35;;;;;;;6.00;2.50;;;;;;;;;;5055434;28;20108;-70
2021/08/20 09:38:09;;;;;;;5.45;2.70;;;;;;;;;;5056019;28;20024;-69
2021/08/20 09:40:35;;;;;;;10.38;3.10;;;;;;;;;;5055601;28;20029;-69
2021/08/20 09:43:12;;;;;;;4.18;2.28;;;;;;;;;;5073865;28;20021;-69
2021/08/20 09:45:38;;;;;;;7.80;3.28;;;;;;;;;;5075904;28;20384;-70
2021/08/20 09:48:08;;;;;;;7.82;2.85;;;;;;;;;;5075326;28;20079;-69
2021/08/20 09:50:41;;;;;;;5.35;2.50;;;;;;;;;;5075726;28;20024;-70
2021/08/20 09:53:13;;;;;;;7.28;3.03;;;;;;;;;;5075842;28;20476;-68
2021/08/20 09:55:39;;;;;;;;;;;;;;;;;;5074047;28;20045;-70
2021/08/20 09:58:11;;;;;;;5.43;3.15;;;;;;;;;;5075611;28;19904;-69
2021/08/20 10:00:37;;;;;;;8.30;3.00;;;;;;;;;;5074319;28;20016;-69
2021/08/20 10:03:05;;;;;;;8.75;3.10;;;;;;;;;;5075071;28;20028;-69
2021/08/20 10:05:33;;;;;;;8.60;3.15;;;;;;;;;;5075329;28;20078;-70
2021/08/20 10:08:00;;;;;;;5.22;2.78;;;;;;;;;;5075314;28;20036;-70
2021/08/20 10:10:26;;;;;;;9.57;4.05;;;;;;;;;;5074878;28;20032;-69
2021/08/20 10:12:54;;;;;;;7.60;3.28;;;;;;;;;;5075327;28;20025;-70
2021/08/20 10:15:20;;;;;;;9.35;4.00;;;;;;;;;;5074403;28;20067;-70
2021/08/20 10:17:46;;;;;;;7.28;4.15;;;;;;;;;;5075199;28;20103;-70
2021/08/20 10:20:13;;;;;;;9.75;3.90;;;;;;;;;;5075129;28;20528;-70
2021/08/20 10:22:40;;;;;;;5.28;3.33;;;;;;;;;;5074554;28;20029;-70
2021/08/20 10:25:07;;;;;;;8.05;3.35;;;;;;;;;;5074774;28;20048;-68
2021/08/20 10:27:36;;;;;;;7.10;3.30;;;;;;;;;;5074984;28;20469;-68
2021/08/20 10:30:02;;;;;;;5.88;3.53;;;;;;;;;;5074531;28;20380;-69
2021/08/20 10:32:28;;;;;;;5.93;3.30;;;;;;;;;;5074965;28;20016;-70
2021/08/20 10:34:55;;;;;;;6.35;3.33;;;;;;;;;;5074666;28;20044;-69
2021/08/20 10:37:31;;;;;;;6.85;3.22;;;;;;;;;;5073554;28;20499;-69
2021/08/20 10:40:00;;;;;;;5.65;3.28;;;;;;;;;;5074643;28;20032;-69
2021/08/20 10:42:52;;;;;;;6.00;3.20;;;;;;;;;;5073321;28;20541;-69
2021/08/20 10:45:19;;;;;;;7.65;3.65;;;;;;;;;;5071620;28;20076;-69
2021/08/20 10:47:46;;;;;;;6.43;2.78;;;;;;;;;;5074652;28;20044;-68
2021/08/20 10:50:19;;;;;;;8.32;3.38;;;;;;;;;;5070523;28;20024;-70
2021/08/20 10:52:51;;;;;;;6.43;3.33;;;;;;;;;;5074035;28;20024;-69
2021/08/20 10:55:27;;;;;;;7.22;3.55;;;;;;;;;;5073621;28;20032;-69
2021/08/20 10:57:55;;;;;;;8.07;3.90;;;;;;;;;;5072069;28;20021;-69
2021/08/20 11:00:21;;;;;;;6.82;3.90;;;;;;;;;;5073096;28;20035;-69
2021/08/20 11:02:48;;;;;;;9.75;3.80;;;;;;;;;;5073935;28;20066;-69
2021/08/20 11:05:14;;;;;;;6.32;3.47;;;;;;;;;;5073601;28;20028;-69
2021/08/20 11:07:41;;;;;;;7.70;3.80;;;;;;;;;;5074069;28;20473;-69
2021/08/20 11:10:10;;;;;;;7.40;3.90;;;;;;;;;;5073656;28;20020;-69
2021/08/20 11:12:38;;;;;;;7.20;4.00;;;;;;;;;;5073500;28;20086;-69
2021/08/20 11:15:19;;;;;;;10.65;4.60;;;;;;;;;;5073731;28;20040;-69
2021/08/20 11:17:52;;;;;;;6.25;3.33;;;;;;;;;;5073828;28;20029;-69
2021/08/20 11:20:22;;;;;;;7.60;3.83;;;;;;;;;;5072068;28;20099;-68
2021/08/20 11:23:18;;;;;;;6.28;3.35;;;;;;;;;;5073896;28;20043;-68
2021/08/20 11:25:56;;;;;;;6.45;3.38;;;;;;;;;;5060260;28;20044;-68
2021/08/20 11:28:27;;;;;;;7.80;3.15;;;;;;;;;;5074005;28;20459;-68
2021/08/20 11:31:03;;;;;;;7.88;3.72;;;;;;;;;;5073627;28;20025;-68
2021/08/20 11:33:31;;;;;;;8.45;3.85;;;;;;;;;;5071948;28;20024;-68
2021/08/20 11:35:59;;;;;;;7.53;3.45;;;;;;;;;;5073110;28;20111;-69
2021/08/20 11:38:28;;;;;;;8.73;3.60;;;;;;;;;;5071564;28;20083;-70
2021/08/20 11:41:04;;;;;;;6.18;3.35;;;;;;;;;;5072112;28;20020;-68
2021/08/20 11:43:30;;;;;;;5.95;3.63;;;;;;;;;;5072236;28;20476;-70
2021/08/20 11:46:15;;;;;;;5.78;3.30;;;;;;;;;;5073489;28;20032;-70
2021/08/20 11:48:42;;;;;;;8.10;4.30;;;;;;;;;;5072792;28;20027;-70
2021/08/20 11:51:09;;;;;;;7.05;3.72;;;;;;;;;;5073289;28;20021;-70
2021/08/20 11:53:35;;;;;;;6.80;3.78;;;;;;;;;;5073330;28;20477;-68
2021/08/20 11:56:15;;;;;;;6.25;3.75;;;;;;;;;;5072894;28;20141;-69
2021/08/20 11:58:41;;;;;;;7.88;4.25;;;;;;;;;;5073267;28;20025;-70
2021/08/20 12:01:34;;;;;;;6.50;3.67;;;;;;;;;;5072995;28;20353;-70
2021/08/20 12:04:01;;;;;;;7.13;3.92;;;;;;;;;;5071095;28;20115;-69
2021/08/20 12:06:28;;;;;;;8.00;3.78;;;;;;;;;;5072958;28;20024;-69
2021/08/20 12:08:58;;;;;;;7.00;3.72;;;;;;;;;;5072992;28;20029;-69
2021/08/20 12:11:27;;;;;;;7.13;4.20;;;;;;;;;;5071923;28;20025;-71
2021/08/20 12:13:54;;;;;;;9.70;4.18;;;;;;;;;;5073063;28;20068;-70
2021/08/20 12:16:50;;;;;;;8.35;4.55;;;;;;;;;;5072791;28;20025;-68
2021/08/20 12:19:16;;;;;;;7.97;4.00;;;;;;;;;;5045393;28;20036;-69
2021/08/20 12:21:45;;;;;;;6.35;3.72;;;;;;;;;;5073144;28;20498;-70
2021/08/20 12:24:12;;;;;;;6.95;4.40;;;;;;;;;;5067273;28;20025;-70
2021/08/20 12:26:39;;;;;;;7.68;4.60;;;;;;;;;;5072968;28;20036;-69
2021/08/20 12:29:15;;;;;;;7.00;3.55;;;;;;;;;;5067250;28;20063;-70
2021/08/20 12:31:53;;;;;;;5.47;3.47;;;;;;;;;;5071889;28;20028;-69
2021/08/20 12:34:26;;;;;;;7.68;4.50;;;;;;;;;;5072909;28;20036;-68
2021/08/20 12:36:56;;;;;;;6.35;3.80;;;;;;;;;;5071243;28;20370;-70
2021/08/20 12:39:32;;;;;;;7.32;3.97;;;;;;;;;;5072717;28;20025;-70
2021/08/20 12:42:17;;;;;;;7.35;4.43;;;;;;;;;;5072685;28;20024;-69
2021/08/20 12:44:43;;;;;;;9.73;4.50;;;;;;;;;;5070955;28;20033;-70
2021/08/20 12:47:10;;;;;;;7.20;4.20;;;;;;;;;;5072419;28;20105;-70
2021/08/20 12:49:56;;;;;;;7.40;4.03;;;;;;;;;;5071342;28;20020;-69
2021/08/20 12:52:28;;;;;;;8.10;4.32;;;;;;;;;;5072180;28;20086;-69
2021/08/20 12:54:54;;;;;;;7.28;4.07;;;;;;;;;;5072412;28;20037;-69
2021/08/20 12:57:21;;;;;;;5.82;3.85;;;;;;;;;;5072088;28;20020;-69
2021/08/20 12:59:49;;;;;;;6.20;3.85;;;;;;;;;;5072708;28;20032;-70
2021/08/20 13:02:15;;;;;;;7.63;4.50;;;;;;;;;;5075712;28;20013;-69
2021/08/20 13:04:41;;;;;;;7.47;3.63;;;;;;;;;;5074727;28;20107;-69
2021/08/20 13:07:07;;;;;;;7.00;4.35;;;;;;;;;;5076198;28;20096;-70
2021/08/20 13:09:33;;;;;;;9.18;4.65;;;;;;;;;;5076315;28;20103;-70
2021/08/20 13:12:00;;;;;;;6.85;4.22;;;;;;;;;;5076051;28;20038;-69
2021/08/20 13:14:26;;;;;;;6.85;3.95;;;;;;;;;;5074701;28;20132;-69
2021/08/20 13:16:55;;;;;;;7.03;4.00;;;;;;;;;;5075721;28;20030;-70
2021/08/20 13:19:21;;;;;;;7.38;4.50;;;;;;;;;;5075217;28;20019;-67
2021/08/20 13:21:47;;;;;;;7.35;3.85;;;;;;;;;;5070477;28;20385;-69
2021/08/20 13:24:13;;;;;;;10.07;4.50;;;;;;;;;;5075641;28;20028;-69
2021/08/20 13:26:40;;;;;;;5.70;3.80;;;;;;;;;;5075489;28;20477;-69
2021/08/20 13:29:06;;;;;;;7.38;3.83;;;;;;;;;;5076057;28;20029;-69
2021/08/20 13:31:32;;;;;;;7.72;4.43;;;;;;;;;;5074330;28;20031;-68
2021/08/20 13:33:59;;;;;;;6.50;3.78;;;;;;;;;;5075572;28;20021;-69
2021/08/20 13:36:25;;;;;;;6.97;4.13;;;;;;;;;;5075810;28;20024;-70
2021/08/20 13:38:52;;;;;;;7.80;3.80;;;;;;;;;;5075863;28;20020;-68
2021/08/20 13:41:18;;;;;;;7.60;4.70;;;;;;;;;;5075464;28;20494;-69
2021/08/20 13:43:44;;;;;;;8.35;4.25;;;;;;;;;;5075860;28;20099;-69
2021/08/20 13:46:10;;;;;;;5.95;3.50;;;;;;;;;;5075668;28;20469;-70
2021/08/20 13:48:36;;;;;;;6.82;3.58;;;;;;;;;;5076003;28;20025;-68
2021/08/20 13:51:02;;;;;;;9.00;3.95;;;;;;;;;;5075684;28;20550;-69
2021/08/20 13:53:29;;;;;;;7.60;4.18;;;;;;;;;;5075172;28;20111;-67
2021/08/20 13:55:55;;;;;;;6.22;3.63;;;;;;;;;;5075484;28;20082;-69
2021/08/20 13:58:21;;;;;;;6.13;3.50;;;;;;;;;;5075720;28;20358;-69
2021/08/20 14:00:47;;;;;;;6.68;3.75;;;;;;;;;;5075152;28;20025;-69
2021/08/20 14:03:13;;;;;;;4.82;3.28;;;;;;;;;;5075504;28;20436;-69
2021/08/20 14:05:42;;;;;;;8.82;3.85;;;;;;;;;;5075232;28;20032;-68
2021/08/20 14:08:08;;;;;;;6.45;3.60;;;;;;;;;;5073707;28;20028;-69
2021/08/20 14:10:34;;;;;;;7.22;3.88;;;;;;;;;;5075430;28;20397;-69
2021/08/20 14:13:01;;;;;;;7.53;3.72;;;;;;;;;;5075247;28;20017;-69
2021/08/20 14:15:27;;;;;;;6.53;4.00;;;;;;;;;;5074513;28;20052;-68
2021/08/20 14:17:53;;;;;;;6.22;4.00;;;;;;;;;;5073937;28;20032;-69
2021/08/20 14:20:21;;;;;;;6.82;3.78;;;;;;;;;;5075159;28;20122;-68
2021/08/20 14:22:47;;;;;;;6.03;3.55;;;;;;;;;;5074692;28;20465;-68
2021/08/20 14:25:14;;;;;;;6.22;3.80;;;;;;;;;;5075080;28;20028;-68
2021/08/20 14:27:40;;;;;;;10.98;4.13;;;;;;;;;;5074999;28;20017;-69
2021/08/20 14:30:07;;;;;;;6.50;3.70;;;;;;;;;;5074607;28;20070;-68
2021/08/20 14:32:33;;;;;;;5.78;3.70;;;;;;;;;;5074870;28;20487;-68
2021/08/20 14:34:59;;;;;;;5.93;3.38;;;;;;;;;;5074636;28;20043;-68
2021/08/20 14:37:25;;;;;;;6.28;3.60;;;;;;;;;;5074431;28;20023;-69
2021/08/20 14:39:51;;;;;;;5.93;3.63;;;;;;;;;;5074742;28;20053;-69
2021/08/20 14:42:18;;;;;;;7.35;3.67;;;;;;;;;;5074736;28;20024;-70
2021/08/20 14:44:44;;;;;;;7.00;3.50;;;;;;;;;;5074270;28;20024;-68
2021/08/20 14:47:10;;;;;;;4.95;3.38;;;;;;;;;;5074611;28;20477;-69
2021/08/20 14:49:36;;;;;;;4.63;2.80;;;;;;;;;;5074192;28;20431;-69
2021/08/20 14:52:04;;;;;;;9.05;4.00;;;;;;;;;;5074716;28;20024;-69
2021/08/20 14:54:30;;;;;;;5.88;3.65;;;;;;;;;;5073001;28;20025;-69
2021/08/20 14:56:56;;;;;;;6.22;3.55;;;;;;;;;;5074150;28;20073;-69
2021/08/20 14:59:23;;;;;;;5.82;3.60;;;;;;;;;;5074641;28;20024;-70
2021/08/20 15:01:49;;;;;;;10.82;4.22;;;;;;;;;;5074146;28;20025;-69
2021/08/20 15:04:15;;;;;;;5.90;3.78;;;;;;;;;;5073945;28;20021;-69
2021/08/20 15:06:44;;;;;;;5.78;3.45;;;;;;;;;;5074210;28;20024;-70
2021/08/20 15:09:10;;;;;;;5.90;3.03;;;;;;;;;;5074221;28;20027;-70
2021/08/20 15:11:36;;;;;;;7.13;3.33;;;;;;;;;;5073785;28;20024;-70
2021/08/20 15:14:06;;;;;;;6.38;4.13;;;;;;;;;;5073750;28;20045;-69
2021/08/20 15:16:35;;;;;;;4.75;3.08;;;;;;;;;;5074151;28;20024;-69
2021/08/20 15:19:02;;;;;;;4.35;3.00;;;;;;;;;;5073787;28;20021;-69
2021/08/20 15:21:29;;;;;;;6.95;3.42;;;;;;;;;;5073903;28;20032;-69
2021/08/20 15:23:55;;;;;;;5.30;3.05;;;;;;;;;;5073389;28;20520;-68
2021/08/20 15:26:21;;;;;;;5.30;3.15;;;;;;;;;;5073444;28;20024;-67
2021/08/20 15:28:47;;;;;;;5.65;3.47;;;;;;;;;;5073871;28;20086;-69
2021/08/20 15:31:14;;;;;;;6.47;3.65;;;;;;;;;;5073901;28;20082;-67
2021/08/20 15:33:40;;;;;;;5.85;3.78;;;;;;;;;;5073253;28;20033;-69
2021/08/20 15:36:06;;;;;;;6.93;4.45;;;;;;;;;;5073688;28;20032;-70
2021/08/20 15:38:33;;;;;;;5.75;3.75;;;;;;;;;;5073782;28;20030;-70
2021/08/20 15:40:59;;;;;;;7.00;3.72;;;;;;;;;;5073285;28;20028;-69
2021/08/20 15:43:25;;;;;;;6.82;3.90;;;;;;;;;;5073563;28;20021;-69
2021/08/20 15:45:51;;;;;;;5.35;3.50;;;;;;;;;;5073661;28;20104;-68
2021/08/20 15:48:19;;;;;;;6.00;3.50;;;;;;;;;;5073187;28;20095;-69
2021/08/20 15:50:45;;;;;;;6.00;3.28;;;;;;;;;;5073494;28;20158;-70